Allardt, Tennessee
Current Conditions -  °F | °C
As of 9:53 AM on Friday 21 Nov 2014 (Local Time) from KCSV Reporting Station
Clear Clear  
Wind Chill: 36°   Ceiling: Unl
Heat Index: 39°   Visibility: 10mi
Dew Point: 14°   Wind: 5mph
Humidity: 36%   Direction: 70°ENE
Pressure: 30.43"   Gusts: NA
Location:  36.38°N, 84.88°W
Report Text: KCSV 211553Z AUTO 07004KT 10SM CLR 04/M10 A3043 RMK AO2 SLP315 T00391100
Loading
Personal Weather Stations






























Interactive Weather Map New forecast layout! Learn more

10-Day Weather Forecast

Advertisements
Track Severe Weather on mobile